sensor_id;sensor_type;location;lat;lon;timestamp;P1;durP1;ratioP1;P2;durP2;ratioP2
64885;SDS011;51514;52.206;5.114;2023-06-04T00:01:34;4.97;;;3.03;;
64885;SDS011;51514;52.206;5.114;2023-06-04T00:03:59;8.63;;;2.42;;
64885;SDS011;51514;52.206;5.114;2023-06-04T00:06:24;5.50;;;2.30;;
64885;SDS011;51514;52.206;5.114;2023-06-04T00:08:50;5.13;;;2.08;;
64885;SDS011;51514;52.206;5.114;2023-06-04T00:11:15;2.80;;;2.35;;
64885;SDS011;51514;52.206;5.114;2023-06-04T00:13:40;4.80;;;2.10;;
64885;SDS011;51514;52.206;5.114;2023-06-04T00:16:06;3.50;;;1.83;;
64885;SDS011;51514;52.206;5.114;2023-06-04T00:18:31;4.05;;;2.13;;
64885;SDS011;51514;52.206;5.114;2023-06-04T00:20:56;4.38;;;2.53;;
64885;SDS011;51514;52.206;5.114;2023-06-04T00:23:22;3.00;;;1.67;;
64885;SDS011;51514;52.206;5.114;2023-06-04T00:25:47;3.85;;;2.30;;
64885;SDS011;51514;52.206;5.114;2023-06-04T00:28:12;4.65;;;2.25;;
64885;SDS011;51514;52.206;5.114;2023-06-04T00:30:38;3.72;;;2.25;;
64885;SDS011;51514;52.206;5.114;2023-06-04T00:33:03;5.13;;;2.25;;
64885;SDS011;51514;52.206;5.114;2023-06-04T00:35:28;5.70;;;2.33;;
64885;SDS011;51514;52.206;5.114;2023-06-04T00:37:54;4.50;;;1.90;;
64885;SDS011;51514;52.206;5.114;2023-06-04T00:40:19;6.82;;;2.33;;
64885;SDS011;51514;52.206;5.114;2023-06-04T00:42:45;4.05;;;1.90;;
64885;SDS011;51514;52.206;5.114;2023-06-04T00:45:10;3.72;;;1.98;;
64885;SDS011;51514;52.206;5.114;2023-06-04T00:47:36;5.38;;;2.33;;
64885;SDS011;51514;52.206;5.114;2023-06-04T00:50:01;2.92;;;1.90;;
64885;SDS011;51514;52.206;5.114;2023-06-04T00:52:27;4.25;;;2.33;;
64885;SDS011;51514;52.206;5.114;2023-06-04T00:54:53;3.65;;;1.92;;
64885;SDS011;51514;52.206;5.114;2023-06-04T00:57:20;2.70;;;1.90;;
64885;SDS011;51514;52.206;5.114;2023-06-04T00:59:46;4.00;;;1.60;;
64885;SDS011;51514;52.206;5.114;2023-06-04T01:02:13;7.97;;;2.10;;
64885;SDS011;51514;52.206;5.114;2023-06-04T01:07:15;5.65;;;2.30;;
64885;SDS011;51514;52.206;5.114;2023-06-04T01:09:41;4.53;;;2.65;;
64885;SDS011;51514;52.206;5.114;2023-06-04T01:12:09;4.43;;;2.45;;
64885;SDS011;51514;52.206;5.114;2023-06-04T01:14:36;2.97;;;1.90;;
64885;SDS011;51514;52.206;5.114;2023-06-04T01:17:02;4.80;;;2.13;;
64885;SDS011;51514;52.206;5.114;2023-06-04T01:19:45;4.53;;;2.05;;
64885;SDS011;51514;52.206;5.114;2023-06-04T01:22:29;4.75;;;2.28;;
64885;SDS011;51514;52.206;5.114;2023-06-04T01:27:49;3.80;;;2.15;;
64885;SDS011;51514;52.206;5.114;2023-06-04T01:30:18;5.93;;;2.50;;
64885;SDS011;51514;52.206;5.114;2023-06-04T01:32:45;4.57;;;2.00;;
64885;SDS011;51514;52.206;5.114;2023-06-04T01:35:11;3.00;;;1.95;;
64885;SDS011;51514;52.206;5.114;2023-06-04T01:37:37;3.60;;;1.92;;
64885;SDS011;51514;52.206;5.114;2023-06-04T01:40:02;4.53;;;1.98;;
64885;SDS011;51514;52.206;5.114;2023-06-04T01:42:29;5.43;;;2.50;;
64885;SDS011;51514;52.206;5.114;2023-06-04T01:44:55;3.58;;;2.33;;
64885;SDS011;51514;52.206;5.114;2023-06-04T01:47:20;3.40;;;2.22;;
64885;SDS011;51514;52.206;5.114;2023-06-04T01:49:45;3.13;;;2.03;;
64885;SDS011;51514;52.206;5.114;2023-06-04T01:52:11;3.85;;;2.17;;
64885;SDS011;51514;52.206;5.114;2023-06-04T01:54:36;4.05;;;2.15;;
64885;SDS011;51514;52.206;5.114;2023-06-04T01:57:03;6.68;;;2.30;;
64885;SDS011;51514;52.206;5.114;2023-06-04T01:59:30;2.85;;;1.95;;
64885;SDS011;51514;52.206;5.114;2023-06-04T02:01:57;4.57;;;2.03;;
64885;SDS011;51514;52.206;5.114;2023-06-04T02:04:22;5.03;;;2.38;;
64885;SDS011;51514;52.206;5.114;2023-06-04T02:06:48;4.93;;;2.55;;
64885;SDS011;51514;52.206;5.114;2023-06-04T02:09:15;6.05;;;2.08;;
64885;SDS011;51514;52.206;5.114;2023-06-04T02:11:41;3.60;;;2.10;;
64885;SDS011;51514;52.206;5.114;2023-06-04T02:14:06;9.25;;;2.47;;
64885;SDS011;51514;52.206;5.114;2023-06-04T02:16:31;3.17;;;2.13;;
64885;SDS011;51514;52.206;5.114;2023-06-04T02:18:57;5.57;;;2.60;;
64885;SDS011;51514;52.206;5.114;2023-06-04T02:21:24;3.08;;;1.95;;
64885;SDS011;51514;52.206;5.114;2023-06-04T02:23:49;3.88;;;2.13;;
64885;SDS011;51514;52.206;5.114;2023-06-04T02:26:14;6.03;;;2.30;;
64885;SDS011;51514;52.206;5.114;2023-06-04T02:28:40;4.90;;;2.45;;
64885;SDS011;51514;52.206;5.114;2023-06-04T02:31:05;3.58;;;1.88;;
64885;SDS011;51514;52.206;5.114;2023-06-04T02:33:30;4.25;;;2.10;;
64885;SDS011;51514;52.206;5.114;2023-06-04T02:35:56;5.80;;;2.20;;
64885;SDS011;51514;52.206;5.114;2023-06-04T02:38:22;3.35;;;2.10;;
64885;SDS011;51514;52.206;5.114;2023-06-04T02:40:47;3.40;;;2.33;;
64885;SDS011;51514;52.206;5.114;2023-06-04T02:43:12;4.25;;;1.90;;
64885;SDS011;51514;52.206;5.114;2023-06-04T02:45:38;4.78;;;2.38;;
64885;SDS011;51514;52.206;5.114;2023-06-04T02:48:03;5.43;;;2.10;;
64885;SDS011;51514;52.206;5.114;2023-06-04T02:50:28;3.75;;;1.83;;
64885;SDS011;51514;52.206;5.114;2023-06-04T02:52:54;4.22;;;2.50;;
64885;SDS011;51514;52.206;5.114;2023-06-04T02:55:19;5.13;;;2.30;;
64885;SDS011;51514;52.206;5.114;2023-06-04T02:57:44;7.18;;;2.58;;
64885;SDS011;51514;52.206;5.114;2023-06-04T03:00:10;5.63;;;2.50;;
64885;SDS011;51514;52.206;5.114;2023-06-04T03:02:44;4.22;;;2.55;;
64885;SDS011;51514;52.206;5.114;2023-06-04T03:05:11;6.07;;;2.38;;
64885;SDS011;51514;52.206;5.114;2023-06-04T03:07:38;4.63;;;2.10;;
64885;SDS011;51514;52.206;5.114;2023-06-04T03:10:06;3.33;;;2.05;;
64885;SDS011;51514;52.206;5.114;2023-06-04T03:12:32;4.85;;;2.30;;
64885;SDS011;51514;52.206;5.114;2023-06-04T03:14:57;3.80;;;2.30;;
64885;SDS011;51514;52.206;5.114;2023-06-04T03:17:22;4.65;;;2.28;;
64885;SDS011;51514;52.206;5.114;2023-06-04T03:19:48;5.80;;;3.88;;
64885;SDS011;51514;52.206;5.114;2023-06-04T03:22:13;4.53;;;2.30;;
64885;SDS011;51514;52.206;5.114;2023-06-04T03:24:39;6.07;;;2.80;;
64885;SDS011;51514;52.206;5.114;2023-06-04T03:27:06;4.05;;;2.60;;
64885;SDS011;51514;52.206;5.114;2023-06-04T03:29:33;4.45;;;2.58;;
64885;SDS011;51514;52.206;5.114;2023-06-04T03:32:00;6.40;;;3.22;;
64885;SDS011;51514;52.206;5.114;2023-06-04T03:34:26;6.00;;;3.30;;
64885;SDS011;51514;52.206;5.114;2023-06-04T03:36:52;4.40;;;2.70;;
64885;SDS011;51514;52.206;5.114;2023-06-04T03:39:18;6.43;;;2.95;;
64885;SDS011;51514;52.206;5.114;2023-06-04T03:41:44;7.43;;;3.03;;
64885;SDS011;51514;52.206;5.114;2023-06-04T03:44:09;7.03;;;2.78;;
64885;SDS011;51514;52.206;5.114;2023-06-04T03:46:37;6.65;;;2.80;;
64885;SDS011;51514;52.206;5.114;2023-06-04T03:49:03;6.15;;;2.85;;
64885;SDS011;51514;52.206;5.114;2023-06-04T03:51:28;5.30;;;3.20;;
64885;SDS011;51514;52.206;5.114;2023-06-04T03:53:53;6.55;;;2.67;;
64885;SDS011;51514;52.206;5.114;2023-06-04T03:56:19;7.63;;;3.17;;
64885;SDS011;51514;52.206;5.114;2023-06-04T03:58:44;6.28;;;3.15;;
64885;SDS011;51514;52.206;5.114;2023-06-04T04:01:10;7.30;;;3.10;;
64885;SDS011;51514;52.206;5.114;2023-06-04T04:03:36;6.75;;;3.08;;
64885;SDS011;51514;52.206;5.114;2023-06-04T04:06:01;4.97;;;3.05;;
64885;SDS011;51514;52.206;5.114;2023-06-04T04:08:27;4.40;;;2.72;;
64885;SDS011;51514;52.206;5.114;2023-06-04T04:10:56;8.45;;;3.50;;
64885;SDS011;51514;52.206;5.114;2023-06-04T04:13:21;6.95;;;3.10;;
64885;SDS011;51514;52.206;5.114;2023-06-04T04:15:47;6.93;;;3.10;;
64885;SDS011;51514;52.206;5.114;2023-06-04T04:18:12;8.57;;;3.30;;
64885;SDS011;51514;52.206;5.114;2023-06-04T04:20:38;6.50;;;3.00;;
64885;SDS011;51514;52.206;5.114;2023-06-04T04:23:03;7.53;;;3.80;;
64885;SDS011;51514;52.206;5.114;2023-06-04T04:25:29;6.90;;;3.05;;
64885;SDS011;51514;52.206;5.114;2023-06-04T04:27:54;7.78;;;3.25;;
64885;SDS011;51514;52.206;5.114;2023-06-04T04:30:21;5.22;;;3.20;;
64885;SDS011;51514;52.206;5.114;2023-06-04T04:32:47;4.90;;;2.95;;
64885;SDS011;51514;52.206;5.114;2023-06-04T04:35:15;7.78;;;3.75;;
64885;SDS011;51514;52.206;5.114;2023-06-04T04:37:43;5.63;;;3.33;;
64885;SDS011;51514;52.206;5.114;2023-06-04T04:40:09;6.93;;;3.53;;
64885;SDS011;51514;52.206;5.114;2023-06-04T04:42:36;7.22;;;3.13;;
64885;SDS011;51514;52.206;5.114;2023-06-04T04:45:02;7.00;;;3.45;;
64885;SDS011;51514;52.206;5.114;2023-06-04T04:47:27;6.25;;;3.38;;
64885;SDS011;51514;52.206;5.114;2023-06-04T04:49:53;7.65;;;3.35;;
64885;SDS011;51514;52.206;5.114;2023-06-04T04:52:18;6.93;;;3.50;;
64885;SDS011;51514;52.206;5.114;2023-06-04T04:54:43;10.75;;;3.58;;
64885;SDS011;51514;52.206;5.114;2023-06-04T04:57:08;5.32;;;3.30;;
64885;SDS011;51514;52.206;5.114;2023-06-04T04:59:34;6.90;;;3.75;;
64885;SDS011;51514;52.206;5.114;2023-06-04T05:01:59;7.68;;;3.40;;
64885;SDS011;51514;52.206;5.114;2023-06-04T05:04:25;8.55;;;3.53;;
64885;SDS011;51514;52.206;5.114;2023-06-04T05:06:51;9.23;;;3.10;;
64885;SDS011;51514;52.206;5.114;2023-06-04T05:09:16;9.70;;;3.80;;
64885;SDS011;51514;52.206;5.114;2023-06-04T05:11:41;11.45;;;4.20;;
64885;SDS011;51514;52.206;5.114;2023-06-04T05:14:07;6.95;;;3.17;;
64885;SDS011;51514;52.206;5.114;2023-06-04T05:16:32;6.88;;;3.63;;
64885;SDS011;51514;52.206;5.114;2023-06-04T05:19:00;11.60;;;4.57;;
64885;SDS011;51514;52.206;5.114;2023-06-04T05:21:26;7.40;;;2.90;;
64885;SDS011;51514;52.206;5.114;2023-06-04T05:23:53;8.63;;;3.50;;
64885;SDS011;51514;52.206;5.114;2023-06-04T05:26:19;7.78;;;3.05;;
64885;SDS011;51514;52.206;5.114;2023-06-04T05:28:48;9.13;;;3.33;;
64885;SDS011;51514;52.206;5.114;2023-06-04T05:31:13;9.18;;;3.63;;
64885;SDS011;51514;52.206;5.114;2023-06-04T05:33:40;6.63;;;3.20;;
64885;SDS011;51514;52.206;5.114;2023-06-04T05:36:06;7.50;;;3.25;;
64885;SDS011;51514;52.206;5.114;2023-06-04T05:38:31;7.90;;;3.45;;
64885;SDS011;51514;52.206;5.114;2023-06-04T05:40:56;8.43;;;3.30;;
64885;SDS011;51514;52.206;5.114;2023-06-04T05:43:22;8.15;;;3.47;;
64885;SDS011;51514;52.206;5.114;2023-06-04T05:45:48;6.90;;;2.95;;
64885;SDS011;51514;52.206;5.114;2023-06-04T05:48:13;7.05;;;3.05;;
64885;SDS011;51514;52.206;5.114;2023-06-04T05:50:39;9.10;;;3.25;;
64885;SDS011;51514;52.206;5.114;2023-06-04T05:53:04;8.45;;;2.88;;
64885;SDS011;51514;52.206;5.114;2023-06-04T05:55:30;5.10;;;2.72;;
64885;SDS011;51514;52.206;5.114;2023-06-04T05:57:55;4.78;;;2.92;;
64885;SDS011;51514;52.206;5.114;2023-06-04T06:00:21;9.65;;;3.35;;
64885;SDS011;51514;52.206;5.114;2023-06-04T06:02:47;7.85;;;2.78;;
64885;SDS011;51514;52.206;5.114;2023-06-04T06:05:14;6.07;;;2.65;;
64885;SDS011;51514;52.206;5.114;2023-06-04T06:07:40;5.70;;;2.58;;
64885;SDS011;51514;52.206;5.114;2023-06-04T06:10:06;7.05;;;3.17;;
64885;SDS011;51514;52.206;5.114;2023-06-04T06:12:32;7.60;;;2.85;;
64885;SDS011;51514;52.206;5.114;2023-06-04T06:14:57;4.10;;;2.38;;
64885;SDS011;51514;52.206;5.114;2023-06-04T06:17:23;5.45;;;2.35;;
64885;SDS011;51514;52.206;5.114;2023-06-04T06:19:48;4.70;;;2.40;;
64885;SDS011;51514;52.206;5.114;2023-06-04T06:22:14;8.75;;;2.67;;
64885;SDS011;51514;52.206;5.114;2023-06-04T06:24:40;7.82;;;2.58;;
64885;SDS011;51514;52.206;5.114;2023-06-04T06:27:05;3.63;;;2.28;;
64885;SDS011;51514;52.206;5.114;2023-06-04T06:29:31;5.70;;;2.90;;
64885;SDS011;51514;52.206;5.114;2023-06-04T06:31:57;3.50;;;2.08;;
64885;SDS011;51514;52.206;5.114;2023-06-04T06:34:23;6.10;;;2.67;;
64885;SDS011;51514;52.206;5.114;2023-06-04T06:36:48;5.43;;;1.98;;
64885;SDS011;51514;52.206;5.114;2023-06-04T06:39:14;5.97;;;2.50;;
64885;SDS011;51514;52.206;5.114;2023-06-04T06:41:40;6.47;;;2.47;;
64885;SDS011;51514;52.206;5.114;2023-06-04T06:44:06;5.10;;;2.53;;
64885;SDS011;51514;52.206;5.114;2023-06-04T06:46:32;5.57;;;2.15;;
64885;SDS011;51514;52.206;5.114;2023-06-04T06:48:57;6.05;;;2.20;;
64885;SDS011;51514;52.206;5.114;2023-06-04T06:51:22;6.50;;;2.92;;
64885;SDS011;51514;52.206;5.114;2023-06-04T06:53:51;5.47;;;2.40;;
64885;SDS011;51514;52.206;5.114;2023-06-04T06:56:16;4.78;;;2.08;;
64885;SDS011;51514;52.206;5.114;2023-06-04T06:58:43;4.78;;;2.03;;
64885;SDS011;51514;52.206;5.114;2023-06-04T07:01:09;5.85;;;2.10;;
64885;SDS011;51514;52.206;5.114;2023-06-04T07:03:34;4.47;;;2.00;;
64885;SDS011;51514;52.206;5.114;2023-06-04T07:06:00;6.85;;;2.20;;
64885;SDS011;51514;52.206;5.114;2023-06-04T07:08:25;12.48;;;2.40;;
64885;SDS011;51514;52.206;5.114;2023-06-04T07:10:50;4.47;;;2.00;;
64885;SDS011;51514;52.206;5.114;2023-06-04T07:13:16;7.70;;;2.50;;
64885;SDS011;51514;52.206;5.114;2023-06-04T07:15:41;3.58;;;2.10;;
64885;SDS011;51514;52.206;5.114;2023-06-04T07:18:07;10.02;;;2.60;;
64885;SDS011;51514;52.206;5.114;2023-06-04T07:20:32;5.60;;;1.90;;
64885;SDS011;51514;52.206;5.114;2023-06-04T07:22:57;8.80;;;2.75;;
64885;SDS011;51514;52.206;5.114;2023-06-04T07:25:23;5.32;;;2.30;;
64885;SDS011;51514;52.206;5.114;2023-06-04T07:27:48;5.55;;;2.50;;
64885;SDS011;51514;52.206;5.114;2023-06-04T07:30:17;6.45;;;2.17;;
64885;SDS011;51514;52.206;5.114;2023-06-04T07:32:47;5.40;;;2.75;;
64885;SDS011;51514;52.206;5.114;2023-06-04T07:35:12;4.97;;;2.22;;
64885;SDS011;51514;52.206;5.114;2023-06-04T07:37:38;2.40;;;1.70;;
64885;SDS011;51514;52.206;5.114;2023-06-04T07:40:03;7.95;;;2.92;;
64885;SDS011;51514;52.206;5.114;2023-06-04T07:42:29;9.27;;;2.40;;
64885;SDS011;51514;52.206;5.114;2023-06-04T07:44:54;5.63;;;2.05;;
64885;SDS011;51514;52.206;5.114;2023-06-04T07:47:20;4.18;;;1.77;;
64885;SDS011;51514;52.206;5.114;2023-06-04T07:49:45;5.45;;;2.42;;
64885;SDS011;51514;52.206;5.114;2023-06-04T07:52:10;6.03;;;2.35;;
64885;SDS011;51514;52.206;5.114;2023-06-04T07:54:36;4.32;;;2.13;;
64885;SDS011;51514;52.206;5.114;2023-06-04T07:57:02;3.28;;;2.03;;
64885;SDS011;51514;52.206;5.114;2023-06-04T07:59:27;7.85;;;2.03;;
64885;SDS011;51514;52.206;5.114;2023-06-04T08:01:54;4.78;;;2.17;;
64885;SDS011;51514;52.206;5.114;2023-06-04T08:04:19;5.18;;;2.10;;
64885;SDS011;51514;52.206;5.114;2023-06-04T08:06:45;3.92;;;2.30;;
64885;SDS011;51514;52.206;5.114;2023-06-04T08:09:11;3.53;;;2.20;;
64885;SDS011;51514;52.206;5.114;2023-06-04T08:11:37;5.85;;;2.20;;
64885;SDS011;51514;52.206;5.114;2023-06-04T08:14:02;6.35;;;2.25;;
64885;SDS011;51514;52.206;5.114;2023-06-04T08:16:28;5.57;;;1.88;;
64885;SDS011;51514;52.206;5.114;2023-06-04T08:18:53;4.65;;;1.80;;
64885;SDS011;51514;52.206;5.114;2023-06-04T08:21:25;4.40;;;2.08;;
64885;SDS011;51514;52.206;5.114;2023-06-04T08:23:51;5.13;;;2.03;;
64885;SDS011;51514;52.206;5.114;2023-06-04T08:26:17;4.38;;;1.98;;
64885;SDS011;51514;52.206;5.114;2023-06-04T08:28:44;7.03;;;2.03;;
64885;SDS011;51514;52.206;5.114;2023-06-04T08:31:10;7.32;;;1.80;;
64885;SDS011;51514;52.206;5.114;2023-06-04T08:33:35;3.55;;;1.77;;
64885;SDS011;51514;52.206;5.114;2023-06-04T08:36:01;5.88;;;2.33;;
64885;SDS011;51514;52.206;5.114;2023-06-04T08:38:26;4.10;;;2.40;;
64885;SDS011;51514;52.206;5.114;2023-06-04T08:40:52;5.28;;;1.90;;
64885;SDS011;51514;52.206;5.114;2023-06-04T08:43:18;4.10;;;2.17;;
64885;SDS011;51514;52.206;5.114;2023-06-04T08:45:44;5.50;;;2.53;;
64885;SDS011;51514;52.206;5.114;2023-06-04T08:48:15;8.73;;;2.55;;
64885;SDS011;51514;52.206;5.114;2023-06-04T08:50:44;4.80;;;1.87;;
64885;SDS011;51514;52.206;5.114;2023-06-04T08:53:13;6.00;;;2.10;;
64885;SDS011;51514;52.206;5.114;2023-06-04T08:55:40;6.63;;;2.10;;
64885;SDS011;51514;52.206;5.114;2023-06-04T08:58:06;5.22;;;2.05;;
64885;SDS011;51514;52.206;5.114;2023-06-04T09:00:35;3.92;;;1.95;;
64885;SDS011;51514;52.206;5.114;2023-06-04T09:03:01;9.00;;;2.00;;
64885;SDS011;51514;52.206;5.114;2023-06-04T09:05:28;6.22;;;2.13;;
64885;SDS011;51514;52.206;5.114;2023-06-04T09:07:53;6.10;;;1.90;;
64885;SDS011;51514;52.206;5.114;2023-06-04T09:10:25;5.60;;;2.05;;
64885;SDS011;51514;52.206;5.114;2023-06-04T09:12:51;6.90;;;2.45;;
64885;SDS011;51514;52.206;5.114;2023-06-04T09:15:17;5.75;;;1.88;;
64885;SDS011;51514;52.206;5.114;2023-06-04T09:17:42;6.55;;;2.03;;
64885;SDS011;51514;52.206;5.114;2023-06-04T09:20:08;5.47;;;2.00;;
64885;SDS011;51514;52.206;5.114;2023-06-04T09:22:43;3.40;;;1.80;;
64885;SDS011;51514;52.206;5.114;2023-06-04T09:25:18;4.43;;;2.17;;
64885;SDS011;51514;52.206;5.114;2023-06-04T09:27:44;4.43;;;2.10;;
64885;SDS011;51514;52.206;5.114;2023-06-04T09:30:10;3.75;;;1.65;;
64885;SDS011;51514;52.206;5.114;2023-06-04T09:32:35;5.53;;;2.13;;
64885;SDS011;51514;52.206;5.114;2023-06-04T09:35:09;8.60;;;2.20;;
64885;SDS011;51514;52.206;5.114;2023-06-04T09:37:34;5.07;;;2.33;;
64885;SDS011;51514;52.206;5.114;2023-06-04T09:40:00;4.68;;;2.20;;
64885;SDS011;51514;52.206;5.114;2023-06-04T09:42:26;3.75;;;1.95;;
64885;SDS011;51514;52.206;5.114;2023-06-04T09:45:01;6.03;;;1.92;;
64885;SDS011;51514;52.206;5.114;2023-06-04T09:47:27;4.13;;;2.10;;
64885;SDS011;51514;52.206;5.114;2023-06-04T09:50:03;6.10;;;2.20;;
64885;SDS011;51514;52.206;5.114;2023-06-04T09:52:32;4.47;;;1.83;;
64885;SDS011;51514;52.206;5.114;2023-06-04T09:54:59;5.35;;;2.42;;
64885;SDS011;51514;52.206;5.114;2023-06-04T09:57:24;5.60;;;2.20;;
64885;SDS011;51514;52.206;5.114;2023-06-04T09:59:50;7.72;;;2.15;;
64885;SDS011;51514;52.206;5.114;2023-06-04T10:02:21;4.55;;;2.30;;
64885;SDS011;51514;52.206;5.114;2023-06-04T10:04:53;5.68;;;2.33;;
64885;SDS011;51514;52.206;5.114;2023-06-04T10:07:21;4.93;;;2.17;;
64885;SDS011;51514;52.206;5.114;2023-06-04T10:09:47;4.28;;;1.77;;
64885;SDS011;51514;52.206;5.114;2023-06-04T10:12:14;5.47;;;2.08;;
64885;SDS011;51514;52.206;5.114;2023-06-04T10:14:41;7.47;;;2.17;;
64885;SDS011;51514;52.206;5.114;2023-06-04T10:17:12;5.05;;;1.92;;
64885;SDS011;51514;52.206;5.114;2023-06-04T10:19:42;4.25;;;2.00;;
64885;SDS011;51514;52.206;5.114;2023-06-04T10:22:09;4.35;;;2.40;;
64885;SDS011;51514;52.206;5.114;2023-06-04T10:24:36;5.20;;;2.00;;
64885;SDS011;51514;52.206;5.114;2023-06-04T10:27:02;4.32;;;1.88;;
64885;SDS011;51514;52.206;5.114;2023-06-04T10:29:35;5.60;;;2.10;;
64885;SDS011;51514;52.206;5.114;2023-06-04T10:32:01;5.82;;;2.25;;
64885;SDS011;51514;52.206;5.114;2023-06-04T10:34:27;8.68;;;2.45;;
64885;SDS011;51514;52.206;5.114;2023-06-04T10:36:52;3.00;;;1.80;;
64885;SDS011;51514;52.206;5.114;2023-06-04T10:39:27;8.35;;;2.33;;
64885;SDS011;51514;52.206;5.114;2023-06-04T10:42:01;5.10;;;2.20;;
64885;SDS011;51514;52.206;5.114;2023-06-04T10:44:27;10.18;;;2.75;;
64885;SDS011;51514;52.206;5.114;2023-06-04T10:46:54;5.75;;;3.03;;
64885;SDS011;51514;52.206;5.114;2023-06-04T10:49:29;7.80;;;2.55;;
64885;SDS011;51514;52.206;5.114;2023-06-04T10:51:56;7.60;;;2.90;;
64885;SDS011;51514;52.206;5.114;2023-06-04T10:54:23;10.43;;;3.92;;
64885;SDS011;51514;52.206;5.114;2023-06-04T10:56:52;5.05;;;2.70;;
64885;SDS011;51514;52.206;5.114;2023-06-04T10:59:21;6.05;;;2.72;;
64885;SDS011;51514;52.206;5.114;2023-06-04T11:01:48;5.05;;;2.60;;
64885;SDS011;51514;52.206;5.114;2023-06-04T11:04:20;11.40;;;3.20;;
64885;SDS011;51514;52.206;5.114;2023-06-04T11:07:10;6.53;;;2.85;;
64885;SDS011;51514;52.206;5.114;2023-06-04T11:09:35;6.53;;;3.45;;
64885;SDS011;51514;52.206;5.114;2023-06-04T11:12:03;5.80;;;3.40;;
64885;SDS011;51514;52.206;5.114;2023-06-04T11:14:30;9.33;;;3.40;;
64885;SDS011;51514;52.206;5.114;2023-06-04T11:16:55;5.75;;;2.92;;
64885;SDS011;51514;52.206;5.114;2023-06-04T11:19:21;7.88;;;3.00;;
64885;SDS011;51514;52.206;5.114;2023-06-04T11:21:47;8.55;;;3.65;;
64885;SDS011;51514;52.206;5.114;2023-06-04T11:24:13;8.90;;;3.58;;
64885;SDS011;51514;52.206;5.114;2023-06-04T11:26:38;9.15;;;3.40;;
64885;SDS011;51514;52.206;5.114;2023-06-04T11:29:11;8.18;;;3.80;;
64885;SDS011;51514;52.206;5.114;2023-06-04T11:31:40;10.70;;;3.20;;
64885;SDS011;51514;52.206;5.114;2023-06-04T11:34:09;6.75;;;3.65;;
64885;SDS011;51514;52.206;5.114;2023-06-04T11:36:37;5.43;;;2.92;;
64885;SDS011;51514;52.206;5.114;2023-06-04T11:39:03;6.95;;;3.65;;
64885;SDS011;51514;52.206;5.114;2023-06-04T11:44:00;7.15;;;2.78;;
64885;SDS011;51514;52.206;5.114;2023-06-04T11:46:33;7.32;;;3.13;;
64885;SDS011;51514;52.206;5.114;2023-06-04T11:48:59;10.57;;;3.03;;
64885;SDS011;51514;52.206;5.114;2023-06-04T11:51:26;6.32;;;2.88;;
64885;SDS011;51514;52.206;5.114;2023-06-04T11:53:52;7.60;;;2.75;;
64885;SDS011;51514;52.206;5.114;2023-06-04T11:56:18;4.90;;;2.90;;
64885;SDS011;51514;52.206;5.114;2023-06-04T11:58:43;4.97;;;2.90;;
64885;SDS011;51514;52.206;5.114;2023-06-04T12:01:11;7.70;;;3.15;;
64885;SDS011;51514;52.206;5.114;2023-06-04T12:03:39;10.02;;;2.97;;
64885;SDS011;51514;52.206;5.114;2023-06-04T12:13:54;4.55;;;2.38;;
64885;SDS011;51514;52.206;5.114;2023-06-04T12:16:20;6.85;;;2.47;;
64885;SDS011;51514;52.206;5.114;2023-06-04T12:18:46;8.90;;;3.20;;
64885;SDS011;51514;52.206;5.114;2023-06-04T12:21:16;4.60;;;2.50;;
64885;SDS011;51514;52.206;5.114;2023-06-04T12:23:44;7.40;;;2.67;;
64885;SDS011;51514;52.206;5.114;2023-06-04T12:26:19;5.90;;;2.70;;
64885;SDS011;51514;52.206;5.114;2023-06-04T12:29:08;6.93;;;2.55;;
64885;SDS011;51514;52.206;5.114;2023-06-04T12:31:35;5.75;;;2.78;;
64885;SDS011;51514;52.206;5.114;2023-06-04T12:34:01;10.35;;;2.80;;
64885;SDS011;51514;52.206;5.114;2023-06-04T12:36:27;6.35;;;2.33;;
64885;SDS011;51514;52.206;5.114;2023-06-04T12:38:53;5.72;;;2.97;;
64885;SDS011;51514;52.206;5.114;2023-06-04T12:41:22;6.07;;;2.60;;
64885;SDS011;51514;52.206;5.114;2023-06-04T12:43:48;7.13;;;2.53;;
64885;SDS011;51514;52.206;5.114;2023-06-04T12:46:13;5.68;;;2.60;;
64885;SDS011;51514;52.206;5.114;2023-06-04T12:48:38;6.88;;;2.50;;
64885;SDS011;51514;52.206;5.114;2023-06-04T12:51:04;6.63;;;2.40;;
64885;SDS011;51514;52.206;5.114;2023-06-04T12:53:29;5.22;;;2.58;;
64885;SDS011;51514;52.206;5.114;2023-06-04T12:55:55;6.78;;;2.20;;
64885;SDS011;51514;52.206;5.114;2023-06-04T12:58:20;4.05;;;2.42;;
64885;SDS011;51514;52.206;5.114;2023-06-04T13:00:46;5.97;;;2.20;;
64885;SDS011;51514;52.206;5.114;2023-06-04T13:03:11;6.15;;;2.10;;
64885;SDS011;51514;52.206;5.114;2023-06-04T13:05:36;7.00;;;2.65;;
64885;SDS011;51514;52.206;5.114;2023-06-04T13:08:02;3.75;;;2.15;;
64885;SDS011;51514;52.206;5.114;2023-06-04T13:10:28;5.70;;;1.80;;
64885;SDS011;51514;52.206;5.114;2023-06-04T13:12:53;4.70;;;2.17;;
64885;SDS011;51514;52.206;5.114;2023-06-04T13:15:19;8.20;;;2.40;;
64885;SDS011;51514;52.206;5.114;2023-06-04T13:17:44;6.80;;;2.22;;
64885;SDS011;51514;52.206;5.114;2023-06-04T13:20:09;5.20;;;2.05;;
64885;SDS011;51514;52.206;5.114;2023-06-04T13:22:35;7.43;;;2.60;;
64885;SDS011;51514;52.206;5.114;2023-06-04T13:25:01;3.90;;;1.77;;
64885;SDS011;51514;52.206;5.114;2023-06-04T13:27:26;4.63;;;2.15;;
64885;SDS011;51514;52.206;5.114;2023-06-04T13:29:51;5.93;;;2.08;;
64885;SDS011;51514;52.206;5.114;2023-06-04T13:32:17;6.00;;;2.10;;
64885;SDS011;51514;52.206;5.114;2023-06-04T13:34:42;8.15;;;2.15;;
64885;SDS011;51514;52.206;5.114;2023-06-04T13:37:07;6.13;;;2.17;;
64885;SDS011;51514;52.206;5.114;2023-06-04T13:39:35;5.93;;;2.20;;
64885;SDS011;51514;52.206;5.114;2023-06-04T13:42:01;6.95;;;2.30;;
64885;SDS011;51514;52.206;5.114;2023-06-04T13:44:26;4.40;;;1.80;;
64885;SDS011;51514;52.206;5.114;2023-06-04T13:46:53;5.07;;;2.33;;
64885;SDS011;51514;52.206;5.114;2023-06-04T13:49:19;4.00;;;2.03;;
64885;SDS011;51514;52.206;5.114;2023-06-04T13:51:44;4.30;;;1.85;;
64885;SDS011;51514;52.206;5.114;2023-06-04T13:54:09;6.88;;;2.50;;
64885;SDS011;51514;52.206;5.114;2023-06-04T13:56:35;3.95;;;1.88;;
64885;SDS011;51514;52.206;5.114;2023-06-04T13:59:00;5.55;;;2.20;;
64885;SDS011;51514;52.206;5.114;2023-06-04T14:01:25;4.93;;;1.90;;
64885;SDS011;51514;52.206;5.114;2023-06-04T14:03:51;9.25;;;2.47;;
64885;SDS011;51514;52.206;5.114;2023-06-04T14:06:17;6.57;;;2.28;;
64885;SDS011;51514;52.206;5.114;2023-06-04T14:08:42;3.35;;;1.67;;
64885;SDS011;51514;52.206;5.114;2023-06-04T14:11:07;5.65;;;2.15;;
64885;SDS011;51514;52.206;5.114;2023-06-04T14:13:33;7.63;;;2.08;;
64885;SDS011;51514;52.206;5.114;2023-06-04T14:15:58;3.85;;;2.33;;
64885;SDS011;51514;52.206;5.114;2023-06-04T14:18:24;7.90;;;2.20;;
64885;SDS011;51514;52.206;5.114;2023-06-04T14:20:49;6.40;;;2.05;;
64885;SDS011;51514;52.206;5.114;2023-06-04T14:23:15;7.90;;;3.00;;
64885;SDS011;51514;52.206;5.114;2023-06-04T14:25:41;4.40;;;2.40;;
64885;SDS011;51514;52.206;5.114;2023-06-04T14:28:07;3.70;;;2.05;;
64885;SDS011;51514;52.206;5.114;2023-06-04T14:30:32;5.07;;;2.22;;
64885;SDS011;51514;52.206;5.114;2023-06-04T14:32:57;5.47;;;2.33;;
64885;SDS011;51514;52.206;5.114;2023-06-04T14:35:23;8.15;;;2.75;;
64885;SDS011;51514;52.206;5.114;2023-06-04T14:37:48;5.25;;;2.10;;
64885;SDS011;51514;52.206;5.114;2023-06-04T14:40:13;5.15;;;2.40;;
64885;SDS011;51514;52.206;5.114;2023-06-04T14:42:39;3.63;;;2.05;;
64885;SDS011;51514;52.206;5.114;2023-06-04T14:45:04;3.42;;;2.00;;
64885;SDS011;51514;52.206;5.114;2023-06-04T14:47:30;4.28;;;2.00;;
64885;SDS011;51514;52.206;5.114;2023-06-04T14:49:55;5.28;;;2.22;;
64885;SDS011;51514;52.206;5.114;2023-06-04T14:52:21;4.78;;;2.60;;
64885;SDS011;51514;52.206;5.114;2023-06-04T14:54:46;8.55;;;2.63;;
64885;SDS011;51514;52.206;5.114;2023-06-04T14:57:11;5.45;;;2.33;;
64885;SDS011;51514;52.206;5.114;2023-06-04T14:59:38;6.15;;;2.00;;